createdAt,value
2022-08-19T00:01:53.535Z,12.93
2022-08-19T00:04:23.897Z,13.88
2022-08-19T00:06:50.902Z,14.30
2022-08-19T00:09:19.787Z,14.20
2022-08-19T00:11:47.003Z,15.00
2022-08-19T00:14:16.714Z,14.25
2022-08-19T00:16:46.855Z,13.75
2022-08-19T00:19:13.991Z,15.02
2022-08-19T00:21:40.688Z,13.50
2022-08-19T00:24:09.489Z,14.07
2022-08-19T00:26:37.383Z,13.50
2022-08-19T00:29:05.535Z,13.35
2022-08-19T00:31:32.469Z,13.38
2022-08-19T00:33:59.243Z,13.48
2022-08-19T00:36:26.392Z,13.35
2022-08-19T00:38:53.909Z,13.23
2022-08-19T00:41:22.342Z,13.18
2022-08-19T00:44:08.753Z,13.35
2022-08-19T00:46:37.640Z,13.80
2022-08-19T00:49:15.516Z,13.43
2022-08-19T00:51:45.568Z,13.48
2022-08-19T00:54:13.043Z,12.85
2022-08-19T00:56:41.669Z,13.55
2022-08-19T00:59:09.939Z,14.15
2022-08-19T01:01:39.546Z,13.48
2022-08-19T01:04:06.588Z,14.30
2022-08-19T01:06:34.652Z,14.48
2022-08-19T01:09:01.362Z,14.45
2022-08-19T01:11:29.704Z,14.20
2022-08-19T01:13:56.506Z,13.88
2022-08-19T01:16:26.077Z,13.68
2022-08-19T01:18:53.266Z,14.25
2022-08-19T01:21:32.184Z,13.18
2022-08-19T01:23:58.967Z,14.13
2022-08-19T01:26:27.721Z,14.63
2022-08-19T01:28:59.607Z,14.52
2022-08-19T01:31:32.519Z,14.80
2022-08-19T01:34:01.758Z,14.80
2022-08-19T01:36:34.875Z,15.35
2022-08-19T01:39:06.604Z,15.63
2022-08-19T01:41:33.416Z,15.23
2022-08-19T01:44:12.382Z,15.02
2022-08-19T01:46:45.318Z,15.70
2022-08-19T01:49:12.067Z,15.55
2022-08-19T01:51:40.139Z,15.50
2022-08-19T01:54:08.231Z,14.88
2022-08-19T01:56:34.936Z,15.43
2022-08-19T01:59:05.390Z,15.80
2022-08-19T02:01:32.894Z,15.80
2022-08-19T02:04:01.714Z,18.65
2022-08-19T02:06:29.328Z,17.40
2022-08-19T02:08:57.408Z,16.45
2022-08-19T02:11:28.852Z,16.65
2022-08-19T02:13:55.952Z,16.02
2022-08-19T02:16:22.848Z,16.65
2022-08-19T02:18:49.512Z,15.13
2022-08-19T02:21:17.907Z,15.25
2022-08-19T02:23:44.820Z,15.02
2022-08-19T02:26:13.280Z,16.13
2022-08-19T02:28:41.220Z,18.55
2022-08-19T02:31:16.908Z,18.48
2022-08-19T02:33:43.695Z,18.00
2022-08-19T02:36:11.766Z,17.20
2022-08-19T02:38:40.681Z,15.90
2022-08-19T02:41:14.679Z,15.00
2022-08-19T02:43:44.396Z,13.82
2022-08-19T02:46:30.779Z,13.73
2022-08-19T02:49:01.444Z,13.02
2022-08-19T02:51:35.084Z,13.13
2022-08-19T02:54:01.994Z,13.80
2022-08-19T02:56:29.245Z,13.75
2022-08-19T02:58:56.467Z,13.38
2022-08-19T03:01:32.906Z,12.57
2022-08-19T03:04:01.975Z,13.27
2022-08-19T03:06:29.371Z,13.38
2022-08-19T03:08:56.357Z,13.32
2022-08-19T03:11:30.237Z,13.73
2022-08-19T03:13:58.201Z,14.10
2022-08-19T03:16:26.830Z,13.88
2022-08-19T03:18:54.278Z,14.50
2022-08-19T03:21:24.812Z,14.07
2022-08-19T03:23:54.892Z,14.55
2022-08-19T03:26:21.899Z,13.77
2022-08-19T03:28:51.751Z,15.32
2022-08-19T03:31:44.857Z,14.40
2022-08-19T03:34:16.183Z,14.75
2022-08-19T03:36:42.847Z,14.90
2022-08-19T03:39:11.684Z,14.55
2022-08-19T03:41:44.316Z,14.43
2022-08-19T03:44:21.569Z,14.15
2022-08-19T03:46:53.808Z,13.57
2022-08-19T03:49:21.107Z,14.30
2022-08-19T03:51:55.520Z,14.77
2022-08-19T03:54:24.071Z,14.38
2022-08-19T03:56:52.450Z,13.70
2022-08-19T03:59:26.534Z,14.38
2022-08-19T04:01:55.508Z,14.32
2022-08-19T04:04:23.068Z,13.93
2022-08-19T04:06:51.700Z,13.60
2022-08-19T04:09:19.000Z,14.60
2022-08-19T04:11:49.697Z,14.20
2022-08-19T04:14:19.469Z,14.98
2022-08-19T04:16:47.661Z,13.98
2022-08-19T04:19:16.089Z,14.00
2022-08-19T04:21:45.988Z,13.98
2022-08-19T04:24:13.566Z,13.95
2022-08-19T04:26:40.242Z,14.27
2022-08-19T04:29:12.510Z,15.48
2022-08-19T04:31:40.998Z,15.15
2022-08-19T04:34:11.780Z,15.45
2022-08-19T04:36:40.728Z,15.60
2022-08-19T04:39:10.301Z,15.75
2022-08-19T04:41:55.757Z,16.02
2022-08-19T04:44:22.450Z,16.20
2022-08-19T04:46:51.553Z,15.40
2022-08-19T04:49:20.691Z,16.08
2022-08-19T04:51:48.664Z,16.05
2022-08-19T04:54:31.009Z,14.80
2022-08-19T04:57:06.997Z,15.23
2022-08-19T04:59:34.473Z,15.15
2022-08-19T05:02:01.266Z,14.80
2022-08-19T05:04:32.792Z,15.77
2022-08-19T05:07:01.129Z,15.35
2022-08-19T05:09:39.053Z,16.08
2022-08-19T05:12:16.104Z,15.93
2022-08-19T05:14:42.813Z,15.05
2022-08-19T05:17:26.705Z,15.25
2022-08-19T05:20:12.846Z,15.10
2022-08-19T05:22:39.981Z,16.05
2022-08-19T05:25:12.943Z,15.75
2022-08-19T05:27:40.417Z,15.00
2022-08-19T05:30:07.537Z,15.20
2022-08-19T05:32:34.303Z,16.00
2022-08-19T05:35:00.924Z,14.93
2022-08-19T05:37:28.579Z,14.77
2022-08-19T05:39:55.694Z,15.10
2022-08-19T05:42:23.864Z,13.88
2022-08-19T05:44:51.738Z,13.90
2022-08-19T05:47:20.654Z,13.93
2022-08-19T05:49:47.602Z,14.55
2022-08-19T05:52:18.700Z,14.50
2022-08-19T05:54:51.035Z,14.85
2022-08-19T05:57:19.721Z,14.52
2022-08-19T05:59:57.645Z,14.15
2022-08-19T06:02:26.735Z,14.88
2022-08-19T06:04:53.466Z,14.23
2022-08-19T06:07:20.570Z,13.93
2022-08-19T06:09:59.875Z,14.68
2022-08-19T06:12:35.868Z,15.18
2022-08-19T06:15:09.204Z,14.15
2022-08-19T06:17:36.169Z,14.50
2022-08-19T06:20:05.625Z,14.57
2022-08-19T06:22:32.258Z,14.85
2022-08-19T06:24:58.938Z,15.13
2022-08-19T06:27:25.612Z,15.13
2022-08-19T06:29:52.226Z,15.50
2022-08-19T06:32:19.997Z,14.40
2022-08-19T06:34:47.392Z,15.68
2022-08-19T06:37:14.228Z,15.40
2022-08-19T06:39:42.939Z,15.02
2022-08-19T06:42:12.464Z,14.75
2022-08-19T06:44:43.070Z,15.63
2022-08-19T06:47:14.910Z,15.52
2022-08-19T06:49:50.119Z,14.90
2022-08-19T06:52:17.078Z,15.45
2022-08-19T06:54:55.475Z,15.52
2022-08-19T06:57:24.485Z,15.45
2022-08-19T06:59:51.526Z,15.40
2022-08-19T07:04:52.570Z,16.50
2022-08-19T07:07:21.874Z,16.25
2022-08-19T07:09:58.389Z,15.95
2022-08-19T07:12:30.447Z,16.50
2022-08-19T07:14:58.629Z,15.27
2022-08-19T07:17:25.791Z,16.65
2022-08-19T07:19:54.555Z,16.17
2022-08-19T07:22:23.411Z,16.20
2022-08-19T07:24:51.727Z,17.20
2022-08-19T07:27:24.298Z,17.05
2022-08-19T07:29:57.172Z,15.65
2022-08-19T07:32:27.236Z,17.17
2022-08-19T07:34:53.904Z,17.27
2022-08-19T07:37:20.677Z,16.67
2022-08-19T07:39:47.296Z,17.45
2022-08-19T07:42:14.704Z,16.30
2022-08-19T07:44:42.152Z,18.15
2022-08-19T07:47:47.830Z,16.92
2022-08-19T07:49:55.831Z,17.55
2022-08-19T07:52:23.290Z,18.05
2022-08-19T07:54:50.782Z,19.00
2022-08-19T07:57:17.694Z,18.05
2022-08-19T07:59:44.298Z,18.00
2022-08-19T08:02:10.999Z,18.17
2022-08-19T08:04:56.541Z,17.95
2022-08-19T08:07:46.511Z,18.50
2022-08-19T08:10:20.619Z,18.25
2022-08-19T08:13:08.650Z,19.27
2022-08-19T08:15:39.945Z,18.27
2022-08-19T08:18:08.645Z,18.25
2022-08-19T08:20:36.103Z,18.30
2022-08-19T08:23:21.476Z,18.73
2022-08-19T08:25:49.353Z,19.05
2022-08-19T08:28:18.068Z,17.20
2022-08-19T08:30:48.314Z,17.65
2022-08-19T08:33:33.070Z,18.60
2022-08-19T08:36:03.770Z,18.73
2022-08-19T08:38:38.422Z,18.23
2022-08-19T08:41:23.457Z,20.02
2022-08-19T08:43:53.777Z,19.65
2022-08-19T08:46:31.104Z,19.17
2022-08-19T08:49:26.741Z,18.02
2022-08-19T08:52:07.292Z,17.88
2022-08-19T08:54:48.784Z,17.63
2022-08-19T08:57:29.136Z,18.98
2022-08-19T09:00:15.290Z,18.75
2022-08-19T09:02:43.528Z,18.23
2022-08-19T09:05:16.362Z,18.58
2022-08-19T09:08:03.689Z,18.80
2022-08-19T09:10:44.331Z,16.98
2022-08-19T09:13:38.427Z,17.58
2022-08-19T09:16:16.827Z,18.00
2022-08-19T09:18:43.447Z,18.80
2022-08-19T09:21:10.410Z,17.75
2022-08-19T09:23:38.365Z,15.68
2022-08-19T09:26:10.441Z,16.17
2022-08-19T09:28:38.436Z,16.25
2022-08-19T09:31:05.942Z,16.25
2022-08-19T09:33:32.639Z,16.40
2022-08-19T09:36:04.604Z,15.98
2022-08-19T09:38:36.903Z,15.18
2022-08-19T09:41:15.903Z,15.68
2022-08-19T09:43:52.808Z,14.98
2022-08-19T09:46:21.975Z,14.82
2022-08-19T09:48:51.553Z,14.30
2022-08-19T09:51:24.579Z,13.88
2022-08-19T09:53:54.525Z,13.85
2022-08-19T09:56:23.033Z,14.27
2022-08-19T09:58:51.754Z,14.15
2022-08-19T10:01:21.863Z,14.00
2022-08-19T10:03:52.272Z,14.07
2022-08-19T10:06:19.486Z,14.50
2022-08-19T10:09:11.703Z,13.98
2022-08-19T10:11:51.055Z,14.50
2022-08-19T10:14:23.391Z,14.48
2022-08-19T10:16:52.397Z,14.27
2022-08-19T10:19:25.514Z,14.13
2022-08-19T10:21:53.424Z,14.23
2022-08-19T10:24:21.549Z,13.55
2022-08-19T10:26:55.779Z,13.25
2022-08-19T10:29:32.470Z,14.57
2022-08-19T10:32:09.468Z,14.27
2022-08-19T10:34:48.891Z,14.30
2022-08-19T10:37:28.927Z,14.68
2022-08-19T10:39:58.063Z,14.52
2022-08-19T10:42:24.943Z,14.43
2022-08-19T10:44:51.875Z,14.77
2022-08-19T10:47:25.557Z,13.93
2022-08-19T10:50:13.190Z,14.77
2022-08-19T10:52:49.095Z,13.70
2022-08-19T10:55:38.327Z,13.52
2022-08-19T10:58:05.232Z,14.30
2022-08-19T11:00:32.453Z,13.70
2022-08-19T11:02:59.147Z,12.60
2022-08-19T11:05:25.880Z,12.85
2022-08-19T11:07:52.962Z,13.73
2022-08-19T11:10:21.871Z,12.80
2022-08-19T11:12:49.210Z,14.48
2022-08-19T11:15:16.372Z,13.95
2022-08-19T11:17:44.618Z,14.32
2022-08-19T11:20:15.602Z,13.38
2022-08-19T11:22:43.187Z,13.07
2022-08-19T11:25:11.931Z,13.50
2022-08-19T11:27:43.032Z,14.18
2022-08-19T11:30:13.018Z,14.52
2022-08-19T11:32:43.539Z,13.55
2022-08-19T11:35:12.624Z,14.07
2022-08-19T11:37:39.411Z,13.75
2022-08-19T11:40:08.356Z,13.10
2022-08-19T11:42:53.514Z,13.32
2022-08-19T11:45:20.246Z,13.15
2022-08-19T11:47:48.060Z,13.02
2022-08-19T11:50:15.935Z,12.43
2022-08-19T11:52:42.759Z,13.02
2022-08-19T11:55:09.988Z,12.35
2022-08-19T11:57:36.654Z,12.50
2022-08-19T12:00:06.839Z,11.85
2022-08-19T12:02:33.556Z,10.77
2022-08-19T12:05:03.130Z,11.40
2022-08-19T12:07:32.093Z,11.45
2022-08-19T12:09:58.732Z,11.13
2022-08-19T12:12:25.883Z,11.00
2022-08-19T12:14:57.616Z,11.00
2022-08-19T12:17:26.584Z,11.60
2022-08-19T12:19:53.955Z,11.02
2022-08-19T12:22:21.684Z,10.27
2022-08-19T12:24:51.092Z,10.90
2022-08-19T12:27:31.927Z,10.20
2022-08-19T12:30:02.534Z,10.57
2022-08-19T12:32:29.215Z,9.65
2022-08-19T12:34:55.995Z,9.82
2022-08-19T12:37:22.581Z,9.10
2022-08-19T12:39:49.226Z,9.00
2022-08-19T12:42:16.164Z,9.98
2022-08-19T12:44:44.267Z,9.45
2022-08-19T12:47:13.952Z,9.30
2022-08-19T12:49:55.281Z,9.55
2022-08-19T12:52:25.106Z,9.82
2022-08-19T12:54:55.421Z,9.80
2022-08-19T12:57:32.817Z,9.90
2022-08-19T13:00:17.744Z,10.25
2022-08-19T13:02:46.577Z,10.70
2022-08-19T13:05:17.552Z,10.27
2022-08-19T13:07:47.123Z,10.40
2022-08-19T13:10:17.938Z,11.05
2022-08-19T13:12:46.323Z,10.13
2022-08-19T13:15:15.079Z,11.02
2022-08-19T13:17:42.396Z,10.75
2022-08-19T13:20:10.743Z,10.27
2022-08-19T13:22:38.089Z,10.98
2022-08-19T13:25:09.331Z,10.60
2022-08-19T13:27:36.959Z,10.90
2022-08-19T13:30:24.404Z,11.25
2022-08-19T13:33:09.858Z,11.65
2022-08-19T13:35:36.521Z,11.15
2022-08-19T13:38:05.778Z,11.13
2022-08-19T13:40:39.769Z,10.63
2022-08-19T13:43:17.616Z,11.23
2022-08-19T13:45:56.761Z,10.60
2022-08-19T13:48:26.190Z,11.27
2022-08-19T13:50:52.866Z,10.73
2022-08-19T13:53:19.673Z,10.63
2022-08-19T13:55:46.388Z,10.80
2022-08-19T13:58:13.980Z,11.80
2022-08-19T14:00:44.314Z,10.15
2022-08-19T14:03:12.023Z,11.10
2022-08-19T14:05:39.333Z,11.20
2022-08-19T14:08:06.315Z,10.50
2022-08-19T14:10:33.369Z,10.90
2022-08-19T14:13:02.455Z,10.77
2022-08-19T14:15:29.831Z,10.68
2022-08-19T14:17:56.855Z,11.10
2022-08-19T14:20:26.063Z,10.85
2022-08-19T14:22:54.068Z,11.05
2022-08-19T14:25:24.899Z,11.10
2022-08-19T14:27:52.122Z,10.73
2022-08-19T14:30:23.075Z,10.95
2022-08-19T14:32:49.857Z,11.27
2022-08-19T14:35:17.176Z,10.90
2022-08-19T14:37:46.135Z,10.85
2022-08-19T14:40:18.374Z,10.65
2022-08-19T14:42:45.399Z,10.50
2022-08-19T14:45:12.669Z,10.68
2022-08-19T14:47:39.948Z,10.95
2022-08-19T14:50:10.417Z,10.23
2022-08-19T14:52:38.136Z,10.45
2022-08-19T14:55:07.698Z,10.23
2022-08-19T14:57:34.417Z,10.07
2022-08-19T15:00:01.127Z,10.80
2022-08-19T15:02:34.534Z,10.32
2022-08-19T15:05:02.576Z,9.75
2022-08-19T15:07:30.199Z,10.13
2022-08-19T15:09:57.226Z,9.82
2022-08-19T15:12:24.085Z,9.65
2022-08-19T15:14:53.650Z,10.55
2022-08-19T15:17:25.700Z,9.73
2022-08-19T15:20:11.010Z,9.95
2022-08-19T15:22:38.217Z,9.70
2022-08-19T15:25:06.456Z,9.43
2022-08-19T15:27:33.342Z,9.90
2022-08-19T15:30:01.014Z,9.52
2022-08-19T15:32:28.995Z,9.38
2022-08-19T15:34:55.715Z,9.50
2022-08-19T15:37:24.288Z,9.75
2022-08-19T15:39:51.447Z,10.00
2022-08-19T15:42:29.465Z,10.65
2022-08-19T15:45:00.495Z,10.07
2022-08-19T15:47:35.385Z,9.93
2022-08-19T15:50:17.466Z,9.75
2022-08-19T15:52:54.444Z,9.45
2022-08-19T15:55:27.376Z,10.68
2022-08-19T15:58:28.737Z,10.27
2022-08-19T16:01:33.545Z,9.55
2022-08-19T16:04:23.890Z,9.18
2022-08-19T16:06:53.536Z,9.90
2022-08-19T16:09:27.297Z,9.50
2022-08-19T16:12:02.806Z,9.77
2022-08-19T16:14:35.179Z,9.93
2022-08-19T16:17:02.086Z,10.18
2022-08-19T16:19:28.796Z,10.10
2022-08-19T16:21:56.924Z,9.98
2022-08-19T16:24:26.550Z,9.98
2022-08-19T16:26:54.545Z,10.02
2022-08-19T16:29:33.844Z,10.23
2022-08-19T16:32:07.613Z,10.77
2022-08-19T16:34:34.625Z,10.55
2022-08-19T16:37:01.429Z,10.55
2022-08-19T16:39:28.131Z,10.30
2022-08-19T16:41:54.885Z,10.23
2022-08-19T16:44:21.939Z,10.43
2022-08-19T16:46:58.314Z,11.13
2022-08-19T16:49:52.990Z,10.77
2022-08-19T16:52:17.779Z,11.10
2022-08-19T16:54:44.741Z,10.45
2022-08-19T16:57:12.517Z,10.93
2022-08-19T16:59:42.484Z,10.68
2022-08-19T17:02:14.861Z,10.85
2022-08-19T17:04:41.595Z,10.70
2022-08-19T17:07:10.388Z,10.73
2022-08-19T17:09:38.009Z,10.40
2022-08-19T17:12:05.377Z,11.10
2022-08-19T17:14:31.962Z,10.88
2022-08-19T17:16:58.531Z,11.55
2022-08-19T17:19:25.132Z,12.57
2022-08-19T17:21:52.189Z,12.45
2022-08-19T17:24:18.954Z,11.57
2022-08-19T17:26:45.706Z,11.48
2022-08-19T17:29:12.400Z,11.73
2022-08-19T17:31:39.000Z,11.70
2022-08-19T17:34:05.766Z,11.50
2022-08-19T17:36:34.090Z,11.45
2022-08-19T17:39:03.858Z,11.70
2022-08-19T17:41:30.584Z,10.88
2022-08-19T17:43:57.688Z,11.15
2022-08-19T17:46:24.328Z,10.50
2022-08-19T17:48:55.094Z,10.40
2022-08-19T17:51:25.127Z,9.98
2022-08-19T17:53:53.865Z,10.15
2022-08-19T17:56:21.496Z,9.27
2022-08-19T17:58:57.704Z,9.10
2022-08-19T18:01:34.105Z,8.50
2022-08-19T18:04:16.955Z,8.32
2022-08-19T18:06:46.927Z,7.55
2022-08-19T18:09:21.020Z,8.85
2022-08-19T18:11:52.676Z,8.05
2022-08-19T18:14:32.817Z,7.80
2022-08-19T18:17:22.954Z,8.90
2022-08-19T18:19:49.787Z,8.63
2022-08-19T18:22:29.781Z,8.40
2022-08-19T18:24:57.905Z,8.15
2022-08-19T18:27:26.214Z,8.48
2022-08-19T18:29:57.841Z,8.07
2022-08-19T18:32:26.594Z,9.00
2022-08-19T18:34:53.594Z,9.18
2022-08-19T18:37:20.848Z,8.82
2022-08-19T18:40:06.145Z,8.80
2022-08-19T18:42:51.377Z,8.18
2022-08-19T18:45:36.705Z,8.35
2022-08-19T18:48:27.096Z,8.40
2022-08-19T18:50:55.467Z,8.55
2022-08-19T18:53:22.102Z,8.35
2022-08-19T18:55:51.843Z,8.60
2022-08-19T18:58:18.465Z,7.85
2022-08-19T19:00:45.223Z,7.80
2022-08-19T19:03:11.826Z,9.13
2022-08-19T19:05:39.900Z,8.82
2022-08-19T19:08:07.546Z,7.78
2022-08-19T19:10:36.200Z,8.45
2022-08-19T19:13:02.832Z,8.50
2022-08-19T19:15:29.466Z,8.77
2022-08-19T19:17:56.283Z,8.27
2022-08-19T19:20:36.500Z,9.90
2022-08-19T19:23:04.012Z,9.57
2022-08-19T19:25:49.971Z,9.35
2022-08-19T19:28:17.764Z,9.68
2022-08-19T19:30:44.382Z,9.85
2022-08-19T19:33:11.333Z,9.50
2022-08-19T19:35:38.563Z,10.07
2022-08-19T19:38:11.686Z,9.60
2022-08-19T19:40:38.408Z,9.60
2022-08-19T19:43:06.202Z,10.05
2022-08-19T19:45:33.418Z,10.23
2022-08-19T19:48:00.576Z,11.00
2022-08-19T19:50:30.079Z,11.57
2022-08-19T19:52:57.785Z,11.00
2022-08-19T19:55:26.548Z,11.02
2022-08-19T19:57:54.156Z,11.80
2022-08-19T20:00:21.862Z,10.50
2022-08-19T20:02:50.710Z,12.23
2022-08-19T20:05:21.133Z,12.65
2022-08-19T20:08:08.221Z,12.02
2022-08-19T20:10:35.113Z,11.82
2022-08-19T20:13:02.882Z,12.55
2022-08-19T20:15:32.111Z,11.80
2022-08-19T20:18:00.802Z,11.55
2022-08-19T20:20:27.955Z,11.07
2022-08-19T20:22:55.054Z,12.07
2022-08-19T20:25:22.283Z,12.32
2022-08-19T20:27:49.595Z,12.65
2022-08-19T20:30:19.881Z,11.70
2022-08-19T20:32:47.459Z,12.50
2022-08-19T20:35:19.381Z,11.90
2022-08-19T20:37:46.036Z,12.68
2022-08-19T20:40:14.170Z,11.32
2022-08-19T20:42:42.546Z,10.25
2022-08-19T20:45:28.031Z,10.00
2022-08-19T20:47:58.546Z,10.23
2022-08-19T20:50:26.021Z,10.38
2022-08-19T20:52:56.771Z,10.63
2022-08-19T20:55:23.519Z,11.35
2022-08-19T20:57:50.156Z,11.43
2022-08-19T21:00:16.985Z,10.50
2022-08-19T21:02:43.720Z,11.35
2022-08-19T21:05:10.920Z,11.00
2022-08-19T21:07:39.199Z,9.60
2022-08-19T21:10:07.503Z,10.77
2022-08-19T21:12:34.103Z,10.90
2022-08-19T21:15:00.720Z,10.52
2022-08-19T21:17:27.307Z,10.55
2022-08-19T21:19:53.903Z,9.73
2022-08-19T21:22:20.534Z,10.45
2022-08-19T21:24:47.191Z,10.77
2022-08-19T21:27:13.812Z,11.57
2022-08-19T21:29:42.079Z,12.30
2022-08-19T21:32:11.076Z,11.85
2022-08-19T21:34:40.891Z,13.38
2022-08-19T21:37:13.985Z,13.63
2022-08-19T21:39:51.517Z,12.70
2022-08-19T21:42:18.191Z,14.02
2022-08-19T21:44:45.938Z,13.43
2022-08-19T21:47:12.814Z,12.02
2022-08-19T21:49:39.503Z,13.15
2022-08-19T21:52:06.810Z,12.63
2022-08-19T21:54:37.817Z,12.75
2022-08-19T21:57:10.088Z,12.77
2022-08-19T21:59:43.924Z,12.38
2022-08-19T22:02:21.009Z,12.20
2022-08-19T22:04:50.714Z,12.00
2022-08-19T22:07:19.370Z,11.32
2022-08-19T22:09:47.918Z,12.68
2022-08-19T22:12:26.675Z,12.65
2022-08-19T22:14:54.088Z,11.90
2022-08-19T22:17:22.303Z,13.93
2022-08-19T22:19:49.908Z,13.60
2022-08-19T22:22:25.009Z,14.35
2022-08-19T22:24:52.524Z,13.70
2022-08-19T22:27:19.909Z,14.98
2022-08-19T22:29:46.607Z,15.60
2022-08-19T22:32:27.095Z,15.98
2022-08-19T22:34:56.912Z,15.77
2022-08-19T22:37:23.584Z,14.68
2022-08-19T22:39:50.268Z,15.52
2022-08-19T22:42:21.982Z,17.77
2022-08-19T22:44:49.203Z,18.20
2022-08-19T22:47:16.250Z,20.27
2022-08-19T22:49:43.244Z,20.48
2022-08-19T22:52:17.617Z,21.65
2022-08-19T22:54:52.067Z,22.08
2022-08-19T22:57:20.295Z,21.63
2022-08-19T22:59:48.982Z,20.42
2022-08-19T23:02:26.209Z,21.33
2022-08-19T23:04:53.228Z,20.45
2022-08-19T23:07:23.604Z,20.98
2022-08-19T23:09:50.754Z,20.35
2022-08-19T23:12:39.842Z,20.63
2022-08-19T23:15:10.576Z,21.05
2022-08-19T23:17:37.633Z,20.40
2022-08-19T23:20:05.807Z,20.73
2022-08-19T23:22:32.871Z,21.70
2022-08-19T23:25:05.439Z,21.63
2022-08-19T23:27:50.695Z,20.55
2022-08-19T23:30:26.545Z,19.90
2022-08-19T23:33:01.078Z,20.27
2022-08-19T23:35:33.333Z,21.38
2022-08-19T23:38:01.072Z,20.33
2022-08-19T23:40:28.584Z,21.05
2022-08-19T23:42:55.273Z,21.48
2022-08-19T23:45:24.617Z,20.48
2022-08-19T23:47:53.263Z,20.88
2022-08-19T23:50:21.062Z,21.05
2022-08-19T23:52:54.229Z,20.02
2022-08-19T23:55:24.949Z,19.90
2022-08-19T23:57:52.024Z,19.75
